createdAt,value
2022-12-26T00:00:16.620Z,73.29
2022-12-26T00:02:48.371Z,71.29
2022-12-26T00:05:19.979Z,70.85
2022-12-26T00:07:51.536Z,73.60
2022-12-26T00:10:23.097Z,73.82
2022-12-26T00:12:54.726Z,73.35
2022-12-26T00:15:46.324Z,71.18
2022-12-26T00:18:17.884Z,73.72
2022-12-26T00:20:49.532Z,72.12
2022-12-26T00:23:21.086Z,72.70
2022-12-26T00:25:52.750Z,72.56
2022-12-26T00:28:24.372Z,76.12
2022-12-26T00:30:56.202Z,73.31
2022-12-26T00:33:27.719Z,74.73
2022-12-26T00:36:05.587Z,74.98
2022-12-26T00:38:38.174Z,73.41
2022-12-26T00:41:11.492Z,75.71
2022-12-26T00:43:43.168Z,74.40
2022-12-26T00:46:15.875Z,77.11
2022-12-26T00:48:48.111Z,75.82
2022-12-26T00:51:19.782Z,72.99
2022-12-26T00:53:52.070Z,71.22
2022-12-26T00:56:23.717Z,70.80
2022-12-26T00:58:55.706Z,70.65
2022-12-26T01:01:28.350Z,72.96
2022-12-26T01:03:59.989Z,71.93
2022-12-26T01:06:32.777Z,70.97
2022-12-26T01:09:04.404Z,69.46
2022-12-26T01:11:36.067Z,68.10
2022-12-26T01:14:11.905Z,72.49
2022-12-26T01:16:46.407Z,71.75
2022-12-26T01:19:18.064Z,73.59
2022-12-26T01:21:49.661Z,78.04
2022-12-26T01:24:21.240Z,78.87
2022-12-26T01:26:52.828Z,75.69
2022-12-26T01:29:24.420Z,73.55
2022-12-26T01:31:56.140Z,75.15
2022-12-26T01:34:27.725Z,71.48
2022-12-26T01:36:59.353Z,74.00
2022-12-26T01:39:31.020Z,76.96
2022-12-26T01:42:02.651Z,73.85
2022-12-26T01:45:04.002Z,69.88
2022-12-26T01:47:51.662Z,71.54
2022-12-26T01:50:33.541Z,70.98
2022-12-26T01:53:20.270Z,72.23
2022-12-26T01:56:01.953Z,73.29
2022-12-26T01:58:39.923Z,71.79
2022-12-26T02:01:13.309Z,70.19
2022-12-26T02:03:48.070Z,70.97
2022-12-26T02:06:20.597Z,71.54
2022-12-26T02:08:53.979Z,73.13
2022-12-26T02:11:38.148Z,72.07
2022-12-26T02:14:10.585Z,71.29
2022-12-26T02:16:42.507Z,70.66
2022-12-26T02:19:45.340Z,71.33
2022-12-26T02:22:52.023Z,70.89
2022-12-26T02:25:29.848Z,71.75
2022-12-26T02:28:19.633Z,69.99
2022-12-26T02:31:22.271Z,70.85
2022-12-26T02:34:11.999Z,71.67
2022-12-26T02:37:01.759Z,77.64
2022-12-26T02:39:53.596Z,75.13
2022-12-26T02:43:11.624Z,74.19
2022-12-26T02:46:03.242Z,73.70
2022-12-26T02:48:54.135Z,78.66
2022-12-26T02:51:46.256Z,77.13
2022-12-26T02:54:34.131Z,79.25
2022-12-26T02:57:13.242Z,77.34
2022-12-26T03:00:12.159Z,76.23
2022-12-26T03:02:55.507Z,75.03
2022-12-26T03:05:53.113Z,71.13
2022-12-26T03:08:41.247Z,71.57
2022-12-26T03:11:13.413Z,72.85
2022-12-26T03:13:47.532Z,74.22
2022-12-26T03:16:22.802Z,70.82
2022-12-26T03:19:00.840Z,69.67
2022-12-26T03:21:42.328Z,71.25
2022-12-26T03:24:17.542Z,71.68
2022-12-26T03:26:54.524Z,70.65
2022-12-26T03:29:26.602Z,71.45
2022-12-26T03:32:00.838Z,72.85
2022-12-26T03:34:34.697Z,71.56
2022-12-26T03:37:12.206Z,69.87
2022-12-26T03:39:58.170Z,71.14
2022-12-26T03:43:04.195Z,72.47
2022-12-26T03:45:49.607Z,71.45
2022-12-26T03:48:26.858Z,71.61
2022-12-26T03:51:11.662Z,71.06
2022-12-26T03:54:09.643Z,71.71
2022-12-26T03:56:51.725Z,70.22
2022-12-26T03:59:51.134Z,70.85
2022-12-26T04:02:27.624Z,69.60
2022-12-26T04:05:06.535Z,68.52
2022-12-26T04:07:56.558Z,69.64
2022-12-26T04:10:39.896Z,73.50
2022-12-26T04:13:38.690Z,72.67
2022-12-26T04:16:41.072Z,78.72
2022-12-26T04:19:32.127Z,78.00
2022-12-26T04:22:27.144Z,76.94
2022-12-26T04:25:12.772Z,73.48
2022-12-26T04:27:44.607Z,74.40
2022-12-26T04:30:16.388Z,72.76
2022-12-26T04:32:57.424Z,72.52
2022-12-26T04:35:44.333Z,70.96
2022-12-26T04:38:24.832Z,69.30
2022-12-26T04:41:02.235Z,69.58
2022-12-26T04:43:49.347Z,70.41
2022-12-26T04:46:25.068Z,72.65
2022-12-26T04:48:58.953Z,70.10
2022-12-26T04:51:30.620Z,70.44
2022-12-26T04:54:03.100Z,69.77
2022-12-26T04:56:35.327Z,70.90
2022-12-26T04:59:06.959Z,70.43
2022-12-26T05:01:38.773Z,71.26
2022-12-26T05:04:18.175Z,69.85
2022-12-26T05:06:50.579Z,69.75
2022-12-26T05:09:22.541Z,68.60
2022-12-26T05:11:54.082Z,69.42
2022-12-26T05:14:25.835Z,70.53
2022-12-26T05:17:00.716Z,69.75
2022-12-26T05:19:32.305Z,70.56
2022-12-26T05:22:05.236Z,73.15
2022-12-26T05:24:41.239Z,71.88
2022-12-26T05:27:16.406Z,77.35
2022-12-26T05:29:48.062Z,74.08
2022-12-26T05:32:19.617Z,71.68
2022-12-26T05:34:51.207Z,72.42
2022-12-26T05:37:22.868Z,71.69
2022-12-26T05:39:54.479Z,71.21
2022-12-26T05:42:26.236Z,72.68
2022-12-26T05:44:57.874Z,71.37
2022-12-26T05:47:29.461Z,71.09
2022-12-26T05:50:01.049Z,69.61
2022-12-26T05:52:32.645Z,69.87
2022-12-26T05:55:04.762Z,70.76
2022-12-26T05:57:36.376Z,71.62
2022-12-26T06:00:08.456Z,72.35
2022-12-26T06:02:40.148Z,71.87
2022-12-26T06:05:11.841Z,71.00
2022-12-26T06:07:43.371Z,73.66
2022-12-26T06:10:15.044Z,77.29
2022-12-26T06:12:46.643Z,73.99
2022-12-26T06:15:18.253Z,75.00
2022-12-26T06:17:49.829Z,73.04
2022-12-26T06:20:22.879Z,74.23
2022-12-26T06:22:54.459Z,73.03
2022-12-26T06:25:26.057Z,72.34
2022-12-26T06:27:57.688Z,72.38
2022-12-26T06:30:29.259Z,71.85
2022-12-26T06:33:00.932Z,71.12
2022-12-26T06:35:34.260Z,71.86
2022-12-26T06:38:05.827Z,73.47
2022-12-26T06:40:41.915Z,71.73
2022-12-26T06:43:13.513Z,71.28
2022-12-26T06:45:53.831Z,72.91
2022-12-26T06:48:26.595Z,72.07
2022-12-26T06:51:02.547Z,73.25
2022-12-26T06:53:34.851Z,73.45
2022-12-26T06:56:10.822Z,71.19
2022-12-26T06:58:43.390Z,73.67
2022-12-26T07:01:18.391Z,76.36
2022-12-26T07:03:52.855Z,77.18
2022-12-26T07:06:37.145Z,77.48
2022-12-26T07:09:14.207Z,77.87
2022-12-26T07:11:49.397Z,79.62
2022-12-26T07:14:20.980Z,78.58
2022-12-26T07:16:52.643Z,77.15
2022-12-26T07:19:24.297Z,75.02
2022-12-26T07:21:55.904Z,73.37
2022-12-26T07:24:27.551Z,71.71
2022-12-26T07:26:59.102Z,75.69
2022-12-26T07:29:30.672Z,74.58
2022-12-26T07:32:02.369Z,74.33
2022-12-26T07:34:33.976Z,72.73
2022-12-26T07:37:05.532Z,70.96
2022-12-26T07:39:37.138Z,71.83
2022-12-26T07:42:08.776Z,73.91
2022-12-26T07:44:40.343Z,71.38
2022-12-26T07:47:12.780Z,68.66
2022-12-26T07:49:44.335Z,68.18
2022-12-26T07:52:15.977Z,68.51
2022-12-26T07:54:47.522Z,70.53
2022-12-26T08:00:11.788Z,70.98
2022-12-26T08:02:51.033Z,71.97
2022-12-26T08:05:22.689Z,71.61
2022-12-26T08:07:54.291Z,71.39
2022-12-26T08:10:25.841Z,69.92
2022-12-26T08:12:57.421Z,70.72
2022-12-26T08:15:29.080Z,72.62
2022-12-26T08:18:00.648Z,73.60
2022-12-26T08:20:32.438Z,72.56
2022-12-26T08:23:04.058Z,73.68
2022-12-26T08:25:35.634Z,74.12
2022-12-26T08:28:07.321Z,73.31
2022-12-26T08:30:40.004Z,73.45
2022-12-26T08:33:13.108Z,73.15
2022-12-26T08:35:44.700Z,70.61
2022-12-26T08:38:16.273Z,69.06
2022-12-26T08:40:54.984Z,69.83
2022-12-26T08:46:20.455Z,74.69
2022-12-26T08:48:52.111Z,76.37
2022-12-26T08:51:25.362Z,77.51
2022-12-26T08:53:56.930Z,76.13
2022-12-26T08:56:29.018Z,75.97
2022-12-26T08:59:00.756Z,75.81
2022-12-26T09:01:32.776Z,73.89
2022-12-26T09:04:05.983Z,71.65
2022-12-26T09:06:39.392Z,71.53
2022-12-26T09:09:12.461Z,70.51
2022-12-26T09:11:44.447Z,69.64
2022-12-26T09:14:16.057Z,72.56
2022-12-26T09:16:51.041Z,71.61
2022-12-26T09:19:23.690Z,71.24
2022-12-26T09:21:55.768Z,74.47
2022-12-26T09:24:27.827Z,74.45
2022-12-26T09:26:59.414Z,74.49
2022-12-26T09:29:31.186Z,74.85
2022-12-26T09:32:02.733Z,74.05
2022-12-26T09:34:34.334Z,74.40
2022-12-26T09:37:05.913Z,75.25
2022-12-26T09:39:37.463Z,74.74
2022-12-26T09:42:28.020Z,74.61
2022-12-26T09:45:11.527Z,73.46
2022-12-26T09:48:11.074Z,72.89
2022-12-26T09:50:43.652Z,74.34
2022-12-26T09:53:25.967Z,73.14
2022-12-26T09:56:05.709Z,72.99
2022-12-26T09:58:49.617Z,72.10
2022-12-26T10:01:35.950Z,73.97
2022-12-26T10:04:17.565Z,72.61
2022-12-26T10:07:01.601Z,72.79
2022-12-26T10:09:54.901Z,72.28
2022-12-26T10:12:49.483Z,72.86
2022-12-26T10:15:35.419Z,72.06
2022-12-26T10:18:28.349Z,71.67
2022-12-26T10:21:18.527Z,71.34
2022-12-26T10:24:01.181Z,71.67
2022-12-26T10:26:39.403Z,72.52
2022-12-26T10:29:38.870Z,72.38
2022-12-26T10:32:40.046Z,71.20
2022-12-26T10:35:32.421Z,71.94
2022-12-26T10:38:50.480Z,70.95
2022-12-26T10:41:42.947Z,71.34
2022-12-26T10:44:16.146Z,70.96
2022-12-26T10:46:58.110Z,70.88
2022-12-26T10:49:30.109Z,71.10
2022-12-26T10:52:04.049Z,70.48
2022-12-26T10:54:35.657Z,70.39
2022-12-26T10:57:08.387Z,69.73
2022-12-26T10:59:50.786Z,69.53
2022-12-26T11:02:29.015Z,69.39
2022-12-26T11:05:22.100Z,69.76
2022-12-26T11:08:16.539Z,70.25
2022-12-26T11:11:07.384Z,69.78
2022-12-26T11:13:50.799Z,69.77
2022-12-26T11:16:33.841Z,68.43
2022-12-26T11:19:06.107Z,68.44
2022-12-26T11:21:37.790Z,69.67
2022-12-26T11:24:09.325Z,69.56
2022-12-26T11:26:40.934Z,68.83
2022-12-26T11:29:20.076Z,68.91
2022-12-26T11:32:00.393Z,68.54
2022-12-26T11:34:44.558Z,68.97
2022-12-26T11:37:28.188Z,68.66
2022-12-26T11:40:00.387Z,68.44
2022-12-26T11:42:32.808Z,68.36
2022-12-26T11:45:11.712Z,69.37
2022-12-26T11:47:46.365Z,69.11
2022-12-26T11:50:29.047Z,68.55
2022-12-26T11:53:00.600Z,67.93
2022-12-26T11:55:37.821Z,67.62
2022-12-26T11:58:09.304Z,67.66
2022-12-26T12:00:45.289Z,67.68
2022-12-26T12:03:20.885Z,67.11
2022-12-26T12:06:24.576Z,66.64
2022-12-26T12:09:07.466Z,67.10
2022-12-26T12:12:23.903Z,66.72
2022-12-26T12:15:11.070Z,66.88
2022-12-26T12:17:57.552Z,66.90
2022-12-26T12:20:52.952Z,66.73
2022-12-26T12:23:52.122Z,66.70
2022-12-26T12:26:40.460Z,67.11
2022-12-26T12:29:57.069Z,67.48
2022-12-26T12:33:12.646Z,66.20
2022-12-26T12:35:53.181Z,66.16
2022-12-26T12:38:56.385Z,66.13
2022-12-26T12:41:56.492Z,67.38
2022-12-26T12:44:33.689Z,67.82
2022-12-26T12:47:08.295Z,67.97
2022-12-26T12:50:34.039Z,69.11
2022-12-26T12:53:20.762Z,69.16
2022-12-26T12:56:04.407Z,69.98
2022-12-26T12:58:41.878Z,69.42
2022-12-26T13:01:29.883Z,68.66
2022-12-26T13:04:12.210Z,68.85
2022-12-26T13:06:53.604Z,69.47
2022-12-26T13:09:33.342Z,69.29
2022-12-26T13:12:09.097Z,68.38
2022-12-26T13:14:48.035Z,68.07
2022-12-26T13:17:29.531Z,68.76
2022-12-26T13:20:36.757Z,69.65
2022-12-26T13:23:46.136Z,67.46
2022-12-26T13:26:26.570Z,68.54
2022-12-26T13:29:11.814Z,67.74
2022-12-26T13:31:45.390Z,68.23
2022-12-26T13:34:20.356Z,67.93
2022-12-26T13:36:57.834Z,67.93
2022-12-26T13:39:36.573Z,69.10
2022-12-26T13:42:08.119Z,70.17
2022-12-26T13:44:40.617Z,71.07
2022-12-26T13:47:35.933Z,71.89
2022-12-26T13:50:48.528Z,74.54
2022-12-26T13:53:25.008Z,75.04
2022-12-26T13:55:58.708Z,74.91
2022-12-26T13:58:36.279Z,75.35
2022-12-26T14:01:10.854Z,74.27
2022-12-26T14:04:19.895Z,74.66
2022-12-26T14:07:01.528Z,76.24
2022-12-26T14:09:49.648Z,76.85
2022-12-26T14:13:07.859Z,75.81
2022-12-26T14:15:56.714Z,75.91
2022-12-26T14:18:40.025Z,75.20
2022-12-26T14:21:14.569Z,73.52
2022-12-26T14:24:07.106Z,72.51
2022-12-26T14:27:05.535Z,74.25
2022-12-26T14:29:55.365Z,72.06
2022-12-26T14:32:45.855Z,70.21
2022-12-26T14:35:20.240Z,69.25
2022-12-26T14:38:21.907Z,69.18
2022-12-26T14:41:13.587Z,71.69
2022-12-26T14:43:45.382Z,74.31
2022-12-26T14:46:32.260Z,74.07
2022-12-26T14:49:36.380Z,70.58
2022-12-26T14:52:23.455Z,71.23
2022-12-26T14:54:56.073Z,70.72
2022-12-26T14:57:46.734Z,72.01
2022-12-26T15:00:21.490Z,69.57
2022-12-26T15:02:58.957Z,72.37
2022-12-26T15:05:38.985Z,72.66
2022-12-26T15:08:57.943Z,74.49
2022-12-26T15:11:48.225Z,76.48
2022-12-26T15:14:53.717Z,78.60
2022-12-26T15:17:37.160Z,75.69
2022-12-26T15:20:45.771Z,76.30
2022-12-26T15:23:35.464Z,78.70
2022-12-26T15:26:34.672Z,74.08
2022-12-26T15:29:24.705Z,73.07
2022-12-26T15:32:08.395Z,72.10
2022-12-26T15:34:52.809Z,72.59
2022-12-26T15:37:27.404Z,73.72
2022-12-26T15:40:11.458Z,77.54
2022-12-26T15:43:04.619Z,79.43
2022-12-26T15:45:48.328Z,80.48
2022-12-26T15:48:32.020Z,78.11
2022-12-26T15:51:18.692Z,76.37
2022-12-26T15:54:20.179Z,75.23
2022-12-26T15:57:10.581Z,76.03
2022-12-26T15:59:58.244Z,78.04
2022-12-26T16:02:37.197Z,79.20
2022-12-26T16:05:32.202Z,80.04
2022-12-26T16:08:09.569Z,77.89
2022-12-26T16:10:41.707Z,79.18
2022-12-26T16:13:16.036Z,79.95
2022-12-26T16:15:51.425Z,80.25
2022-12-26T16:18:29.055Z,80.69
2022-12-26T16:21:05.730Z,79.59
2022-12-26T16:23:41.879Z,81.30
2022-12-26T16:26:40.426Z,81.43
2022-12-26T16:29:20.399Z,81.80
2022-12-26T16:31:52.126Z,81.56
2022-12-26T16:34:23.787Z,81.99
2022-12-26T16:36:55.578Z,79.92
2022-12-26T16:39:27.223Z,78.98
2022-12-26T16:42:29.013Z,78.36
2022-12-26T16:45:01.730Z,77.31
2022-12-26T16:47:33.489Z,75.11
2022-12-26T16:50:05.889Z,75.28
2022-12-26T16:52:45.891Z,75.01
2022-12-26T16:55:33.069Z,73.58
2022-12-26T16:58:25.426Z,73.28
2022-12-26T17:01:05.042Z,74.81
2022-12-26T17:03:55.296Z,76.08
2022-12-26T17:06:34.327Z,78.82
2022-12-26T17:09:10.780Z,79.17
2022-12-26T17:12:04.568Z,78.08
2022-12-26T17:14:42.423Z,78.57
2022-12-26T17:17:23.344Z,79.00
2022-12-26T17:19:58.206Z,80.36
2022-12-26T17:22:35.438Z,80.99
2022-12-26T17:25:31.927Z,81.06
2022-12-26T17:28:09.339Z,76.94
2022-12-26T17:30:51.129Z,77.28
2022-12-26T17:33:27.230Z,77.83
2022-12-26T17:38:57.062Z,73.82
2022-12-26T17:41:28.727Z,73.79
2022-12-26T17:44:01.478Z,77.94
2022-12-26T17:46:33.203Z,78.69
2022-12-26T17:49:04.820Z,79.76
2022-12-26T17:51:36.421Z,77.38
2022-12-26T17:54:08.876Z,79.39
2022-12-26T17:56:40.522Z,80.79
2022-12-26T17:59:15.286Z,80.49
2022-12-26T18:01:47.020Z,80.24
2022-12-26T18:04:18.704Z,80.35
2022-12-26T18:06:50.364Z,80.64
2022-12-26T18:09:27.675Z,81.26
2022-12-26T18:11:59.271Z,82.44
2022-12-26T18:14:30.807Z,81.86
2022-12-26T18:17:03.197Z,81.61
2022-12-26T18:19:34.884Z,81.07
2022-12-26T18:22:13.940Z,80.86
2022-12-26T18:24:45.754Z,81.26
2022-12-26T18:27:21.407Z,80.92
2022-12-26T18:29:53.054Z,79.31
2022-12-26T18:32:31.189Z,79.97
2022-12-26T18:35:02.858Z,79.53
2022-12-26T18:37:34.640Z,80.43
2022-12-26T18:40:06.965Z,79.95
2022-12-26T18:42:38.576Z,79.78
2022-12-26T18:45:10.215Z,78.94
2022-12-26T18:47:41.848Z,79.01
2022-12-26T18:50:15.695Z,78.07
2022-12-26T18:52:53.152Z,77.34
2022-12-26T18:55:26.477Z,77.06
2022-12-26T18:57:58.179Z,76.67
2022-12-26T19:00:30.144Z,76.14
2022-12-26T19:03:01.955Z,75.60
2022-12-26T19:05:34.307Z,75.79
2022-12-26T19:08:06.190Z,76.61
2022-12-26T19:10:37.765Z,75.95
2022-12-26T19:13:09.384Z,75.16
2022-12-26T19:15:45.947Z,74.44
2022-12-26T19:18:17.529Z,73.91
2022-12-26T19:20:49.074Z,73.44
2022-12-26T19:23:20.684Z,72.20
2022-12-26T19:25:52.318Z,72.06
2022-12-26T19:28:23.966Z,71.28
2022-12-26T19:30:55.581Z,70.73
2022-12-26T19:33:27.172Z,72.08
2022-12-26T19:35:58.835Z,71.97
2022-12-26T19:38:30.537Z,72.43
2022-12-26T19:41:08.730Z,71.31
2022-12-26T19:43:41.045Z,71.71
2022-12-26T19:46:14.983Z,70.49
2022-12-26T19:48:46.630Z,69.84
2022-12-26T19:51:19.531Z,69.66
2022-12-26T19:53:51.232Z,69.08
2022-12-26T19:56:26.128Z,68.54
2022-12-26T19:58:58.906Z,66.42
2022-12-26T20:01:32.347Z,68.40
2022-12-26T20:04:05.557Z,66.76
2022-12-26T20:06:38.776Z,65.16
2022-12-26T20:09:13.882Z,66.24
2022-12-26T20:11:48.311Z,64.64
2022-12-26T20:14:21.958Z,64.70
2022-12-26T20:17:07.281Z,65.39
2022-12-26T20:19:39.861Z,67.06
2022-12-26T20:22:11.508Z,65.63
2022-12-26T20:24:43.099Z,65.13
2022-12-26T20:27:14.839Z,64.82
2022-12-26T20:29:46.517Z,66.28
2022-12-26T20:32:18.080Z,66.15
2022-12-26T20:34:49.681Z,65.77
2022-12-26T20:37:21.291Z,65.72
2022-12-26T20:39:52.905Z,65.17
2022-12-26T20:42:24.562Z,64.96
2022-12-26T20:44:56.160Z,65.12
2022-12-26T20:47:27.746Z,64.76
2022-12-26T20:49:59.398Z,64.90
2022-12-26T20:52:31.073Z,65.09
2022-12-26T20:55:02.681Z,65.48
2022-12-26T20:57:34.275Z,64.78
2022-12-26T21:00:06.560Z,64.71
2022-12-26T21:02:38.317Z,65.21
2022-12-26T21:05:10.119Z,64.64
2022-12-26T21:07:41.749Z,65.63
2022-12-26T21:10:13.514Z,64.70
2022-12-26T21:12:45.136Z,66.02
2022-12-26T21:15:16.915Z,66.13
2022-12-26T21:17:48.874Z,65.10
2022-12-26T21:20:20.488Z,65.44
2022-12-26T21:22:53.697Z,64.46
2022-12-26T21:25:25.429Z,64.85
2022-12-26T21:27:59.384Z,68.04
2022-12-26T21:30:31.232Z,67.77
2022-12-26T21:33:02.948Z,69.43
2022-12-26T21:35:37.183Z,70.67
2022-12-26T21:38:10.647Z,71.02
2022-12-26T21:40:43.537Z,71.37
2022-12-26T21:43:16.034Z,70.97
2022-12-26T21:45:48.073Z,72.15
2022-12-26T21:48:19.705Z,73.08
2022-12-26T21:50:51.272Z,71.46
2022-12-26T21:53:22.887Z,73.40
2022-12-26T21:55:54.496Z,72.35
2022-12-26T21:58:26.294Z,72.02
2022-12-26T22:00:57.877Z,72.45
2022-12-26T22:03:29.525Z,70.71
2022-12-26T22:06:01.100Z,70.85
2022-12-26T22:08:32.682Z,71.46
2022-12-26T22:11:04.389Z,72.45
2022-12-26T22:13:42.311Z,73.35
2022-12-26T22:16:13.931Z,73.46
2022-12-26T22:18:47.293Z,72.41
2022-12-26T22:21:21.425Z,73.06
2022-12-26T22:23:53.581Z,73.24
2022-12-26T22:26:27.642Z,72.00
2022-12-26T22:28:59.281Z,71.78
2022-12-26T22:31:33.305Z,72.52
2022-12-26T22:34:11.542Z,73.25
2022-12-26T22:36:43.558Z,73.12
2022-12-26T22:39:16.307Z,71.59
2022-12-26T22:41:48.220Z,73.34
2022-12-26T22:44:19.822Z,72.32
2022-12-26T22:46:51.406Z,73.08
2022-12-26T22:49:23.031Z,71.03
2022-12-26T22:51:55.280Z,69.18
2022-12-26T22:54:26.903Z,70.95
2022-12-26T22:56:58.544Z,69.75
2022-12-26T23:00:06.392Z,70.35
2022-12-26T23:02:21.874Z,69.52
2022-12-26T23:04:54.054Z,68.91
2022-12-26T23:07:26.001Z,66.12
2022-12-26T23:09:57.960Z,67.29
2022-12-26T23:12:29.838Z,68.23
2022-12-26T23:15:01.565Z,67.07
2022-12-26T23:17:37.560Z,66.61
2022-12-26T23:20:12.986Z,66.60
2022-12-26T23:22:44.867Z,65.69
2022-12-26T23:25:16.665Z,65.75
2022-12-26T23:27:48.313Z,65.18
2022-12-26T23:30:19.999Z,66.34
2022-12-26T23:32:53.223Z,65.52
2022-12-26T23:35:25.565Z,65.00
2022-12-26T23:37:57.161Z,64.37
2022-12-26T23:40:28.798Z,64.46
2022-12-26T23:43:00.387Z,64.16
2022-12-26T23:45:31.925Z,62.54
2022-12-26T23:48:04.308Z,61.74
2022-12-26T23:50:35.911Z,61.80
2022-12-26T23:53:08.064Z,61.22
2022-12-26T23:55:40.529Z,61.08
2022-12-26T23:58:12.111Z,62.01
